createdAt,value
2018-10-18T00:02:38.979Z,147.10
2018-10-18T00:05:08.660Z,128.57
2018-10-18T00:07:37.825Z,134.40
2018-10-18T01:02:38.817Z,101.50
2018-10-18T01:05:07.546Z,99.70
2018-10-18T01:07:36.314Z,111.13
2018-10-18T01:10:05.134Z,106.70
2018-10-18T02:02:38.194Z,105.67
2018-10-18T02:05:06.900Z,128.57
2018-10-18T02:07:35.597Z,97.47
2018-10-18T02:10:04.414Z,95.90
2018-10-18T03:02:37.933Z,84.37
2018-10-18T03:05:07.157Z,111.27
2018-10-18T03:07:35.856Z,101.30
2018-10-18T03:10:05.243Z,120.37
2018-10-18T04:02:40.554Z,97.37
2018-10-18T04:05:10.049Z,97.87
2018-10-18T04:07:38.806Z,114.37
2018-10-18T04:10:07.818Z,76.70
2018-10-18T05:02:41.939Z,109.97
2018-10-18T05:05:21.777Z,101.77
2018-10-18T05:07:50.509Z,92.37
2018-10-18T06:02:36.962Z,108.83
2018-10-18T06:05:06.351Z,101.17
2018-10-18T06:07:35.092Z,123.43
2018-10-18T06:10:04.074Z,127.77
2018-10-18T07:02:39.774Z,127.53
2018-10-18T07:05:09.713Z,115.00
2018-10-18T07:07:38.394Z,109.57
2018-10-18T07:10:07.330Z,97.77
2018-10-18T08:02:38.096Z,112.47
2018-10-18T08:05:07.210Z,123.17
2018-10-18T08:07:36.064Z,156.87
2018-10-18T08:10:05.866Z,95.90
2018-10-18T09:02:38.114Z,54.80
2018-10-18T09:05:07.062Z,50.17
2018-10-18T09:07:36.198Z,47.50
2018-10-18T09:10:05.429Z,42.70
2018-10-18T10:02:51.096Z,36.23
2018-10-18T10:05:20.534Z,34.03
2018-10-18T10:07:49.280Z,31.33
2018-10-18T11:02:44.757Z,28.50
2018-10-18T11:05:13.496Z,24.90
2018-10-18T11:07:42.920Z,27.43
2018-10-18T12:02:45.745Z,30.80
2018-10-18T12:05:14.935Z,30.53
2018-10-18T12:07:44.085Z,29.97
2018-10-18T13:02:38.131Z,33.10
2018-10-18T13:05:07.846Z,29.47
2018-10-18T13:07:36.638Z,31.77
2018-10-18T13:10:06.463Z,29.50
2018-10-18T14:02:38.946Z,26.03
2018-10-18T14:05:07.796Z,28.97
2018-10-18T14:07:36.444Z,27.03
2018-10-18T14:10:05.274Z,27.53
2018-10-18T15:02:38.217Z,36.07
2018-10-18T15:05:07.996Z,40.27
2018-10-18T15:07:36.979Z,70.53
2018-10-18T16:02:41.001Z,35.77
2018-10-18T16:05:10.094Z,38.57
2018-10-18T16:07:39.294Z,36.03
2018-10-18T17:02:38.702Z,54.20
2018-10-18T17:05:07.732Z,47.50
2018-10-18T17:07:36.833Z,46.70
2018-10-18T17:10:05.973Z,40.83
2018-10-18T18:02:38.718Z,44.53
2018-10-18T18:05:08.254Z,42.63
2018-10-18T18:07:37.398Z,36.87
2018-10-18T19:02:38.829Z,65.90
2018-10-18T19:05:08.742Z,71.60
2018-10-18T19:07:37.841Z,73.60
2018-10-18T19:10:07.285Z,67.40
2018-10-18T20:02:38.458Z,77.90
2018-10-18T20:05:07.962Z,76.50
2018-10-18T20:07:37.264Z,72.37
2018-10-18T20:10:07.657Z,71.00
2018-10-18T21:02:39.066Z,93.10
2018-10-18T21:05:08.173Z,102.90
2018-10-18T21:07:37.219Z,98.77
2018-10-18T21:10:06.279Z,85.17
2018-10-18T22:02:44.701Z,102.37
2018-10-18T22:05:14.440Z,92.13
2018-10-18T22:07:44.003Z,90.60
2018-10-18T23:02:38.918Z,108.23
2018-10-18T23:05:07.972Z,108.83
2018-10-18T23:07:36.967Z,127.90
2018-10-18T23:10:06.456Z,101.40
